sensor_id;sensor_type;location;lat;lon;timestamp;temperature;humidity
44823;DHT22;51097;51.984;5.650;2023-02-15T00:01:26;4.90;99.90
44823;DHT22;51097;51.984;5.650;2023-02-15T00:03:52;4.90;99.90
44823;DHT22;51097;51.984;5.650;2023-02-15T00:06:18;4.80;99.90
44823;DHT22;51097;51.984;5.650;2023-02-15T00:08:43;4.80;99.90
44823;DHT22;51097;51.984;5.650;2023-02-15T00:11:12;4.80;99.90
44823;DHT22;51097;51.984;5.650;2023-02-15T00:13:38;4.80;99.90
44823;DHT22;51097;51.984;5.650;2023-02-15T00:16:12;4.70;99.90
44823;DHT22;51097;51.984;5.650;2023-02-15T00:18:39;4.70;99.90
44823;DHT22;51097;51.984;5.650;2023-02-15T00:21:06;4.60;99.90
44823;DHT22;51097;51.984;5.650;2023-02-15T00:23:32;4.60;99.90
44823;DHT22;51097;51.984;5.650;2023-02-15T00:26:09;4.50;99.90
44823;DHT22;51097;51.984;5.650;2023-02-15T00:28:35;4.60;99.90
44823;DHT22;51097;51.984;5.650;2023-02-15T00:31:09;4.60;99.90
44823;DHT22;51097;51.984;5.650;2023-02-15T00:33:36;4.50;99.90
44823;DHT22;51097;51.984;5.650;2023-02-15T00:36:06;4.40;99.90
44823;DHT22;51097;51.984;5.650;2023-02-15T00:38:33;4.50;99.90
44823;DHT22;51097;51.984;5.650;2023-02-15T00:41:01;4.40;99.90
44823;DHT22;51097;51.984;5.650;2023-02-15T00:43:28;4.40;99.90
44823;DHT22;51097;51.984;5.650;2023-02-15T00:45:54;4.30;99.90
44823;DHT22;51097;51.984;5.650;2023-02-15T00:48:21;4.30;99.90
44823;DHT22;51097;51.984;5.650;2023-02-15T00:50:52;4.30;99.90
44823;DHT22;51097;51.984;5.650;2023-02-15T00:53:17;4.30;99.90
44823;DHT22;51097;51.984;5.650;2023-02-15T00:55:43;4.20;99.90
44823;DHT22;51097;51.984;5.650;2023-02-15T00:58:10;4.20;99.90
44823;DHT22;51097;51.984;5.650;2023-02-15T01:00:36;4.20;99.90
44823;DHT22;51097;51.984;5.650;2023-02-15T01:03:02;4.20;99.90
44823;DHT22;51097;51.984;5.650;2023-02-15T01:05:28;4.20;99.90
44823;DHT22;51097;51.984;5.650;2023-02-15T01:07:55;4.20;99.90
44823;DHT22;51097;51.984;5.650;2023-02-15T01:10:21;4.20;99.90
44823;DHT22;51097;51.984;5.650;2023-02-15T01:12:47;4.20;99.90
44823;DHT22;51097;51.984;5.650;2023-02-15T01:15:12;4.20;99.90
44823;DHT22;51097;51.984;5.650;2023-02-15T01:17:38;4.10;99.90
44823;DHT22;51097;51.984;5.650;2023-02-15T01:20:04;4.20;99.90
44823;DHT22;51097;51.984;5.650;2023-02-15T01:22:30;4.10;99.90
44823;DHT22;51097;51.984;5.650;2023-02-15T01:24:56;4.10;99.90
44823;DHT22;51097;51.984;5.650;2023-02-15T01:27:21;4.10;99.90
44823;DHT22;51097;51.984;5.650;2023-02-15T01:29:47;4.10;99.90
44823;DHT22;51097;51.984;5.650;2023-02-15T01:32:12;4.10;99.90
44823;DHT22;51097;51.984;5.650;2023-02-15T01:34:38;4.00;99.90
44823;DHT22;51097;51.984;5.650;2023-02-15T01:37:04;4.00;99.90
44823;DHT22;51097;51.984;5.650;2023-02-15T01:39:29;4.00;99.90
44823;DHT22;51097;51.984;5.650;2023-02-15T01:41:55;4.00;99.90
44823;DHT22;51097;51.984;5.650;2023-02-15T01:47:10;4.00;99.90
44823;DHT22;51097;51.984;5.650;2023-02-15T01:49:38;3.90;99.90
44823;DHT22;51097;51.984;5.650;2023-02-15T01:52:08;3.90;99.90
44823;DHT22;51097;51.984;5.650;2023-02-15T01:54:37;3.90;99.90
44823;DHT22;51097;51.984;5.650;2023-02-15T01:57:07;3.90;99.90
44823;DHT22;51097;51.984;5.650;2023-02-15T01:59:35;3.90;99.90
44823;DHT22;51097;51.984;5.650;2023-02-15T02:02:03;3.90;99.90
44823;DHT22;51097;51.984;5.650;2023-02-15T02:06:59;3.90;99.90
44823;DHT22;51097;51.984;5.650;2023-02-15T02:09:25;3.90;99.90
44823;DHT22;51097;51.984;5.650;2023-02-15T02:11:51;3.90;99.90
44823;DHT22;51097;51.984;5.650;2023-02-15T02:14:19;3.90;99.90
44823;DHT22;51097;51.984;5.650;2023-02-15T02:19:46;3.80;99.90
44823;DHT22;51097;51.984;5.650;2023-02-15T02:22:44;3.80;99.90
44823;DHT22;51097;51.984;5.650;2023-02-15T02:25:28;3.80;99.90
44823;DHT22;51097;51.984;5.650;2023-02-15T02:31:29;3.80;99.90
44823;DHT22;51097;51.984;5.650;2023-02-15T02:36:54;3.80;99.90
44823;DHT22;51097;51.984;5.650;2023-02-15T02:39:39;3.80;99.90
44823;DHT22;51097;51.984;5.650;2023-02-15T02:44:54;3.80;99.90
44823;DHT22;51097;51.984;5.650;2023-02-15T02:47:29;3.80;99.90
44823;DHT22;51097;51.984;5.650;2023-02-15T02:50:09;3.80;99.90
44823;DHT22;51097;51.984;5.650;2023-02-15T02:52:37;3.80;99.90
44823;DHT22;51097;51.984;5.650;2023-02-15T02:58:07;3.80;99.90
44823;DHT22;51097;51.984;5.650;2023-02-15T03:03:38;3.80;99.90
44823;DHT22;51097;51.984;5.650;2023-02-15T03:06:22;3.90;99.90
44823;DHT22;51097;51.984;5.650;2023-02-15T03:09:03;3.90;99.90
44823;DHT22;51097;51.984;5.650;2023-02-15T03:11:30;3.80;99.90
44823;DHT22;51097;51.984;5.650;2023-02-15T03:13:59;3.90;99.90
44823;DHT22;51097;51.984;5.650;2023-02-15T03:16:26;3.90;99.90
44823;DHT22;51097;51.984;5.650;2023-02-15T03:19:17;3.90;99.90
44823;DHT22;51097;51.984;5.650;2023-02-15T03:21:51;4.00;99.90
44823;DHT22;51097;51.984;5.650;2023-02-15T03:24:33;4.10;99.90
44823;DHT22;51097;51.984;5.650;2023-02-15T03:27:03;4.10;99.90
44823;DHT22;51097;51.984;5.650;2023-02-15T03:32:02;4.10;99.90
44823;DHT22;51097;51.984;5.650;2023-02-15T03:34:29;4.10;99.90
44823;DHT22;51097;51.984;5.650;2023-02-15T03:40:23;4.10;99.90
44823;DHT22;51097;51.984;5.650;2023-02-15T03:45:56;4.10;99.90
44823;DHT22;51097;51.984;5.650;2023-02-15T03:48:29;4.20;99.90
44823;DHT22;51097;51.984;5.650;2023-02-15T03:51:00;4.20;99.90
44823;DHT22;51097;51.984;5.650;2023-02-15T03:53:47;4.20;99.90
44823;DHT22;51097;51.984;5.650;2023-02-15T03:56:13;4.20;99.90
44823;DHT22;51097;51.984;5.650;2023-02-15T03:58:39;4.20;99.90
44823;DHT22;51097;51.984;5.650;2023-02-15T04:01:34;4.20;99.90
44823;DHT22;51097;51.984;5.650;2023-02-15T04:04:21;4.20;99.90
44823;DHT22;51097;51.984;5.650;2023-02-15T04:06:47;4.30;99.90
44823;DHT22;51097;51.984;5.650;2023-02-15T04:09:13;4.30;99.90
44823;DHT22;51097;51.984;5.650;2023-02-15T04:12:05;4.30;99.90
44823;DHT22;51097;51.984;5.650;2023-02-15T04:14:31;4.30;99.90
44823;DHT22;51097;51.984;5.650;2023-02-15T04:17:15;4.40;99.90
44823;DHT22;51097;51.984;5.650;2023-02-15T04:19:40;4.30;99.90
44823;DHT22;51097;51.984;5.650;2023-02-15T04:22:24;4.40;99.90
44823;DHT22;51097;51.984;5.650;2023-02-15T04:25:08;4.40;99.90
44823;DHT22;51097;51.984;5.650;2023-02-15T04:27:38;4.40;99.90
44823;DHT22;51097;51.984;5.650;2023-02-15T04:30:05;4.50;99.90
44823;DHT22;51097;51.984;5.650;2023-02-15T04:32:31;4.60;99.90
44823;DHT22;51097;51.984;5.650;2023-02-15T04:34:56;4.60;99.90
44823;DHT22;51097;51.984;5.650;2023-02-15T04:37:22;4.60;99.90
44823;DHT22;51097;51.984;5.650;2023-02-15T04:39:47;4.70;99.90
44823;DHT22;51097;51.984;5.650;2023-02-15T04:42:13;4.70;99.90
44823;DHT22;51097;51.984;5.650;2023-02-15T04:44:39;4.70;99.90
44823;DHT22;51097;51.984;5.650;2023-02-15T04:47:04;4.80;99.90
44823;DHT22;51097;51.984;5.650;2023-02-15T04:49:30;4.80;99.90
44823;DHT22;51097;51.984;5.650;2023-02-15T04:51:55;4.80;99.90
44823;DHT22;51097;51.984;5.650;2023-02-15T04:54:21;4.80;99.90
44823;DHT22;51097;51.984;5.650;2023-02-15T04:56:46;4.90;99.90
44823;DHT22;51097;51.984;5.650;2023-02-15T04:59:12;4.90;99.90
44823;DHT22;51097;51.984;5.650;2023-02-15T05:01:38;5.00;99.90
44823;DHT22;51097;51.984;5.650;2023-02-15T05:04:04;5.10;99.90
44823;DHT22;51097;51.984;5.650;2023-02-15T05:06:29;5.10;99.90
44823;DHT22;51097;51.984;5.650;2023-02-15T05:08:55;5.20;99.90
44823;DHT22;51097;51.984;5.650;2023-02-15T05:11:21;5.30;99.90
44823;DHT22;51097;51.984;5.650;2023-02-15T05:13:47;5.30;99.90
44823;DHT22;51097;51.984;5.650;2023-02-15T05:16:13;5.40;99.90
44823;DHT22;51097;51.984;5.650;2023-02-15T05:18:38;5.30;99.90
44823;DHT22;51097;51.984;5.650;2023-02-15T05:21:04;5.40;99.90
44823;DHT22;51097;51.984;5.650;2023-02-15T05:23:29;5.40;99.90
44823;DHT22;51097;51.984;5.650;2023-02-15T05:25:55;5.40;99.90
44823;DHT22;51097;51.984;5.650;2023-02-15T05:28:39;5.50;99.90
44823;DHT22;51097;51.984;5.650;2023-02-15T05:31:06;5.50;99.90
44823;DHT22;51097;51.984;5.650;2023-02-15T05:33:32;5.40;99.90
44823;DHT22;51097;51.984;5.650;2023-02-15T05:35:58;5.50;99.90
44823;DHT22;51097;51.984;5.650;2023-02-15T05:38:24;5.50;99.90
44823;DHT22;51097;51.984;5.650;2023-02-15T05:40:51;5.50;99.90
44823;DHT22;51097;51.984;5.650;2023-02-15T05:43:17;5.50;99.90
44823;DHT22;51097;51.984;5.650;2023-02-15T05:45:47;5.60;99.90
44823;DHT22;51097;51.984;5.650;2023-02-15T05:48:12;5.70;99.90
44823;DHT22;51097;51.984;5.650;2023-02-15T05:50:38;5.70;99.90
44823;DHT22;51097;51.984;5.650;2023-02-15T05:53:03;5.80;99.90
44823;DHT22;51097;51.984;5.650;2023-02-15T05:55:29;5.80;99.90
44823;DHT22;51097;51.984;5.650;2023-02-15T05:57:54;5.70;99.90
44823;DHT22;51097;51.984;5.650;2023-02-15T06:00:20;5.70;99.90
44823;DHT22;51097;51.984;5.650;2023-02-15T06:02:46;5.70;99.90
44823;DHT22;51097;51.984;5.650;2023-02-15T06:05:11;5.80;99.90
44823;DHT22;51097;51.984;5.650;2023-02-15T06:07:37;5.80;99.90
44823;DHT22;51097;51.984;5.650;2023-02-15T06:10:03;5.60;99.90
44823;DHT22;51097;51.984;5.650;2023-02-15T06:12:29;5.60;99.90
44823;DHT22;51097;51.984;5.650;2023-02-15T06:14:54;5.60;99.90
44823;DHT22;51097;51.984;5.650;2023-02-15T06:17:20;5.60;99.90
44823;DHT22;51097;51.984;5.650;2023-02-15T06:19:47;5.70;99.90
44823;DHT22;51097;51.984;5.650;2023-02-15T06:22:12;5.60;99.90
44823;DHT22;51097;51.984;5.650;2023-02-15T06:24:39;5.60;99.90
44823;DHT22;51097;51.984;5.650;2023-02-15T06:27:07;5.70;99.90
44823;DHT22;51097;51.984;5.650;2023-02-15T06:29:33;5.70;99.90
44823;DHT22;51097;51.984;5.650;2023-02-15T06:31:59;5.60;99.90
44823;DHT22;51097;51.984;5.650;2023-02-15T06:34:24;5.60;99.90
44823;DHT22;51097;51.984;5.650;2023-02-15T06:36:50;5.60;99.90
44823;DHT22;51097;51.984;5.650;2023-02-15T06:39:15;5.60;99.90
44823;DHT22;51097;51.984;5.650;2023-02-15T06:41:41;5.50;99.90
44823;DHT22;51097;51.984;5.650;2023-02-15T06:44:07;5.50;99.90
44823;DHT22;51097;51.984;5.650;2023-02-15T06:46:33;5.50;99.90
44823;DHT22;51097;51.984;5.650;2023-02-15T06:49:01;5.50;99.90
44823;DHT22;51097;51.984;5.650;2023-02-15T06:51:26;5.50;99.90
44823;DHT22;51097;51.984;5.650;2023-02-15T06:53:52;5.60;99.90
44823;DHT22;51097;51.984;5.650;2023-02-15T06:56:18;5.50;99.90
44823;DHT22;51097;51.984;5.650;2023-02-15T06:58:43;5.50;99.90
44823;DHT22;51097;51.984;5.650;2023-02-15T07:01:11;5.60;99.90
44823;DHT22;51097;51.984;5.650;2023-02-15T07:03:37;5.50;99.90
44823;DHT22;51097;51.984;5.650;2023-02-15T07:06:04;5.40;99.90
44823;DHT22;51097;51.984;5.650;2023-02-15T07:08:33;5.50;99.90
44823;DHT22;51097;51.984;5.650;2023-02-15T07:11:00;5.50;99.90
44823;DHT22;51097;51.984;5.650;2023-02-15T07:13:44;5.50;99.90
44823;DHT22;51097;51.984;5.650;2023-02-15T07:16:10;5.50;99.90
44823;DHT22;51097;51.984;5.650;2023-02-15T07:18:36;5.60;99.90
44823;DHT22;51097;51.984;5.650;2023-02-15T07:21:01;5.50;99.90
44823;DHT22;51097;51.984;5.650;2023-02-15T07:23:27;5.50;99.90
44823;DHT22;51097;51.984;5.650;2023-02-15T07:26:00;5.50;99.90
44823;DHT22;51097;51.984;5.650;2023-02-15T07:28:25;5.60;99.90
44823;DHT22;51097;51.984;5.650;2023-02-15T07:30:51;5.60;99.90
44823;DHT22;51097;51.984;5.650;2023-02-15T07:33:17;5.60;99.90
44823;DHT22;51097;51.984;5.650;2023-02-15T07:35:56;5.60;99.90
44823;DHT22;51097;51.984;5.650;2023-02-15T07:38:24;5.60;99.90
44823;DHT22;51097;51.984;5.650;2023-02-15T07:40:50;5.60;99.90
44823;DHT22;51097;51.984;5.650;2023-02-15T07:43:16;5.70;99.90
44823;DHT22;51097;51.984;5.650;2023-02-15T07:45:43;5.70;99.90
44823;DHT22;51097;51.984;5.650;2023-02-15T07:48:09;5.70;99.90
44823;DHT22;51097;51.984;5.650;2023-02-15T07:50:34;5.70;99.90
44823;DHT22;51097;51.984;5.650;2023-02-15T07:53:03;5.80;99.90
44823;DHT22;51097;51.984;5.650;2023-02-15T07:55:34;5.80;99.90
44823;DHT22;51097;51.984;5.650;2023-02-15T07:58:00;5.70;99.90
44823;DHT22;51097;51.984;5.650;2023-02-15T08:00:26;5.70;99.90
44823;DHT22;51097;51.984;5.650;2023-02-15T08:02:54;5.70;99.90
44823;DHT22;51097;51.984;5.650;2023-02-15T08:05:39;5.80;99.90
44823;DHT22;51097;51.984;5.650;2023-02-15T08:08:06;5.90;99.90
44823;DHT22;51097;51.984;5.650;2023-02-15T08:10:32;6.00;99.90
44823;DHT22;51097;51.984;5.650;2023-02-15T08:13:16;5.90;99.90
44823;DHT22;51097;51.984;5.650;2023-02-15T08:15:49;5.90;99.90
44823;DHT22;51097;51.984;5.650;2023-02-15T08:18:15;6.00;99.90
44823;DHT22;51097;51.984;5.650;2023-02-15T08:20:40;6.00;99.90
44823;DHT22;51097;51.984;5.650;2023-02-15T08:23:06;6.00;99.90
44823;DHT22;51097;51.984;5.650;2023-02-15T08:25:31;6.10;99.90
44823;DHT22;51097;51.984;5.650;2023-02-15T08:27:57;6.10;99.90
44823;DHT22;51097;51.984;5.650;2023-02-15T08:30:22;6.30;99.90
44823;DHT22;51097;51.984;5.650;2023-02-15T08:32:48;6.20;99.90
44823;DHT22;51097;51.984;5.650;2023-02-15T08:35:16;6.30;99.90
44823;DHT22;51097;51.984;5.650;2023-02-15T08:37:42;6.30;99.90
44823;DHT22;51097;51.984;5.650;2023-02-15T08:40:08;6.30;99.90
44823;DHT22;51097;51.984;5.650;2023-02-15T08:42:34;6.30;99.90
44823;DHT22;51097;51.984;5.650;2023-02-15T08:44:59;6.30;99.90
44823;DHT22;51097;51.984;5.650;2023-02-15T08:47:25;6.30;99.90
44823;DHT22;51097;51.984;5.650;2023-02-15T08:49:50;6.40;99.90
44823;DHT22;51097;51.984;5.650;2023-02-15T08:52:16;6.50;99.90
44823;DHT22;51097;51.984;5.650;2023-02-15T08:54:42;6.50;99.90
44823;DHT22;51097;51.984;5.650;2023-02-15T08:57:08;6.60;99.90
44823;DHT22;51097;51.984;5.650;2023-02-15T08:59:35;6.60;99.90
44823;DHT22;51097;51.984;5.650;2023-02-15T09:02:01;6.60;99.90
44823;DHT22;51097;51.984;5.650;2023-02-15T09:04:28;6.80;99.90
44823;DHT22;51097;51.984;5.650;2023-02-15T09:06:53;6.80;99.90
44823;DHT22;51097;51.984;5.650;2023-02-15T09:09:20;6.90;99.90
44823;DHT22;51097;51.984;5.650;2023-02-15T09:11:48;7.00;99.90
44823;DHT22;51097;51.984;5.650;2023-02-15T09:14:17;7.00;99.90
44823;DHT22;51097;51.984;5.650;2023-02-15T09:16:44;7.10;99.90
44823;DHT22;51097;51.984;5.650;2023-02-15T09:19:15;7.20;99.90
44823;DHT22;51097;51.984;5.650;2023-02-15T09:21:41;7.20;99.90
44823;DHT22;51097;51.984;5.650;2023-02-15T09:24:09;7.30;99.90
44823;DHT22;51097;51.984;5.650;2023-02-15T09:26:37;7.40;99.90
44823;DHT22;51097;51.984;5.650;2023-02-15T09:29:05;7.40;99.90
44823;DHT22;51097;51.984;5.650;2023-02-15T09:31:33;7.50;99.90
44823;DHT22;51097;51.984;5.650;2023-02-15T09:33:59;7.60;99.90
44823;DHT22;51097;51.984;5.650;2023-02-15T09:36:34;7.70;99.90
44823;DHT22;51097;51.984;5.650;2023-02-15T09:46:51;7.90;99.90
44823;DHT22;51097;51.984;5.650;2023-02-15T09:54:59;8.30;99.90
44823;DHT22;51097;51.984;5.650;2023-02-15T10:00:36;8.50;99.90
44823;DHT22;51097;51.984;5.650;2023-02-15T10:03:31;8.70;99.90
44823;DHT22;51097;51.984;5.650;2023-02-15T10:09:00;8.90;99.90
44823;DHT22;51097;51.984;5.650;2023-02-15T10:14:33;9.00;99.90
44823;DHT22;51097;51.984;5.650;2023-02-15T10:17:48;9.20;99.90
44823;DHT22;51097;51.984;5.650;2023-02-15T10:26:20;9.60;99.90
44823;DHT22;51097;51.984;5.650;2023-02-15T10:28:55;9.70;99.90
44823;DHT22;51097;51.984;5.650;2023-02-15T10:31:48;9.80;99.90
44823;DHT22;51097;51.984;5.650;2023-02-15T10:34:18;10.00;99.90
44823;DHT22;51097;51.984;5.650;2023-02-15T10:42:39;10.20;99.90
44823;DHT22;51097;51.984;5.650;2023-02-15T10:45:23;10.30;99.90
44823;DHT22;51097;51.984;5.650;2023-02-15T10:50:55;10.50;99.90
44823;DHT22;51097;51.984;5.650;2023-02-15T11:06:16;11.20;99.90
44823;DHT22;51097;51.984;5.650;2023-02-15T11:08:47;11.20;99.90
44823;DHT22;51097;51.984;5.650;2023-02-15T11:11:38;11.30;99.90
44823;DHT22;51097;51.984;5.650;2023-02-15T11:14:20;11.40;99.90
44823;DHT22;51097;51.984;5.650;2023-02-15T11:16:54;11.50;99.90
44823;DHT22;51097;51.984;5.650;2023-02-15T11:19:32;11.60;99.90
44823;DHT22;51097;51.984;5.650;2023-02-15T11:22:04;11.80;99.90
44823;DHT22;51097;51.984;5.650;2023-02-15T11:24:42;11.80;99.90
44823;DHT22;51097;51.984;5.650;2023-02-15T11:27:21;11.80;99.90
44823;DHT22;51097;51.984;5.650;2023-02-15T11:29:58;11.80;99.90
44823;DHT22;51097;51.984;5.650;2023-02-15T11:35:26;12.00;99.90
44823;DHT22;51097;51.984;5.650;2023-02-15T11:43:28;12.40;99.90
44823;DHT22;51097;51.984;5.650;2023-02-15T11:45:55;12.40;99.90
44823;DHT22;51097;51.984;5.650;2023-02-15T11:48:21;12.60;99.90
44823;DHT22;51097;51.984;5.650;2023-02-15T11:50:47;12.60;99.90
44823;DHT22;51097;51.984;5.650;2023-02-15T11:53:18;12.90;99.90
44823;DHT22;51097;51.984;5.650;2023-02-15T11:55:46;12.90;99.90
44823;DHT22;51097;51.984;5.650;2023-02-15T11:58:37;12.90;99.90
44823;DHT22;51097;51.984;5.650;2023-02-15T12:03:44;13.20;99.90
44823;DHT22;51097;51.984;5.650;2023-02-15T12:06:28;13.20;99.90
44823;DHT22;51097;51.984;5.650;2023-02-15T12:09:07;13.40;99.90
44823;DHT22;51097;51.984;5.650;2023-02-15T12:11:39;13.40;99.90
44823;DHT22;51097;51.984;5.650;2023-02-15T12:14:14;13.50;99.90
44823;DHT22;51097;51.984;5.650;2023-02-15T12:16:51;13.70;99.90
44823;DHT22;51097;51.984;5.650;2023-02-15T12:19:28;13.80;99.90
44823;DHT22;51097;51.984;5.650;2023-02-15T12:21:54;13.80;99.90
44823;DHT22;51097;51.984;5.650;2023-02-15T12:24:23;13.90;99.90
44823;DHT22;51097;51.984;5.650;2023-02-15T12:27:10;14.00;99.90
44823;DHT22;51097;51.984;5.650;2023-02-15T12:29:45;14.20;99.90
44823;DHT22;51097;51.984;5.650;2023-02-15T12:32:22;14.30;99.90
44823;DHT22;51097;51.984;5.650;2023-02-15T12:34:50;14.30;99.90
44823;DHT22;51097;51.984;5.650;2023-02-15T12:37:23;14.50;99.90
44823;DHT22;51097;51.984;5.650;2023-02-15T12:40:00;14.60;99.90
44823;DHT22;51097;51.984;5.650;2023-02-15T12:42:40;14.70;99.90
44823;DHT22;51097;51.984;5.650;2023-02-15T12:45:32;14.80;99.90
44823;DHT22;51097;51.984;5.650;2023-02-15T12:50:40;14.90;99.90
44823;DHT22;51097;51.984;5.650;2023-02-15T12:53:22;15.00;99.90
44823;DHT22;51097;51.984;5.650;2023-02-15T12:56:01;15.10;99.90
44823;DHT22;51097;51.984;5.650;2023-02-15T12:58:29;15.30;99.90
44823;DHT22;51097;51.984;5.650;2023-02-15T13:01:18;15.30;99.90
44823;DHT22;51097;51.984;5.650;2023-02-15T13:04:03;15.50;99.90
44823;DHT22;51097;51.984;5.650;2023-02-15T13:06:32;15.50;99.90
44823;DHT22;51097;51.984;5.650;2023-02-15T13:09:16;15.40;99.90
44823;DHT22;51097;51.984;5.650;2023-02-15T13:11:43;15.50;99.90
44823;DHT22;51097;51.984;5.650;2023-02-15T13:14:21;15.60;99.90
44823;DHT22;51097;51.984;5.650;2023-02-15T13:16:51;15.50;99.90
44823;DHT22;51097;51.984;5.650;2023-02-15T13:19:22;15.50;99.90
44823;DHT22;51097;51.984;5.650;2023-02-15T13:21:53;15.50;99.90
44823;DHT22;51097;51.984;5.650;2023-02-15T13:24:50;15.60;99.90
44823;DHT22;51097;51.984;5.650;2023-02-15T13:27:19;15.60;99.90
44823;DHT22;51097;51.984;5.650;2023-02-15T13:29:51;15.60;99.90
44823;DHT22;51097;51.984;5.650;2023-02-15T13:32:31;15.70;99.90
44823;DHT22;51097;51.984;5.650;2023-02-15T13:34:59;15.50;99.90
44823;DHT22;51097;51.984;5.650;2023-02-15T13:42:55;15.70;99.90
44823;DHT22;51097;51.984;5.650;2023-02-15T13:53:57;15.80;99.90
44823;DHT22;51097;51.984;5.650;2023-02-15T13:56:49;15.90;99.90
44823;DHT22;51097;51.984;5.650;2023-02-15T14:04:40;16.20;99.90
44823;DHT22;51097;51.984;5.650;2023-02-15T14:15:41;16.40;99.90
44823;DHT22;51097;51.984;5.650;2023-02-15T14:18:24;16.40;99.90
44823;DHT22;51097;51.984;5.650;2023-02-15T14:21:17;16.40;99.90
44823;DHT22;51097;51.984;5.650;2023-02-15T14:23:52;16.30;99.90
44823;DHT22;51097;51.984;5.650;2023-02-15T14:29:37;16.50;99.90
44823;DHT22;51097;51.984;5.650;2023-02-15T14:32:14;16.50;99.90
44823;DHT22;51097;51.984;5.650;2023-02-15T14:34:52;16.50;99.90
44823;DHT22;51097;51.984;5.650;2023-02-15T14:37:24;16.60;99.90
44823;DHT22;51097;51.984;5.650;2023-02-15T14:39:55;16.40;99.90
44823;DHT22;51097;51.984;5.650;2023-02-15T14:42:50;16.40;99.90
44823;DHT22;51097;51.984;5.650;2023-02-15T14:50:48;16.50;99.90
44823;DHT22;51097;51.984;5.650;2023-02-15T14:58:56;16.60;99.90
44823;DHT22;51097;51.984;5.650;2023-02-15T15:01:33;16.60;99.90
44823;DHT22;51097;51.984;5.650;2023-02-15T15:04:04;16.60;99.90
44823;DHT22;51097;51.984;5.650;2023-02-15T15:06:31;16.50;99.90
44823;DHT22;51097;51.984;5.650;2023-02-15T15:09:20;16.50;99.90
44823;DHT22;51097;51.984;5.650;2023-02-15T15:11:51;16.60;99.90
44823;DHT22;51097;51.984;5.650;2023-02-15T15:14:49;16.50;99.90
44823;DHT22;51097;51.984;5.650;2023-02-15T15:28:07;16.30;99.90
44823;DHT22;51097;51.984;5.650;2023-02-15T15:38:34;16.20;99.90
44823;DHT22;51097;51.984;5.650;2023-02-15T15:49:57;15.90;99.90
44823;DHT22;51097;51.984;5.650;2023-02-15T15:52:24;15.90;99.90
44823;DHT22;51097;51.984;5.650;2023-02-15T15:54:56;15.80;99.90
44823;DHT22;51097;51.984;5.650;2023-02-15T15:57:42;15.80;99.90
44823;DHT22;51097;51.984;5.650;2023-02-15T16:00:42;15.60;99.90
44823;DHT22;51097;51.984;5.650;2023-02-15T16:03:16;15.60;99.90
44823;DHT22;51097;51.984;5.650;2023-02-15T16:05:45;15.60;99.90
44823;DHT22;51097;51.984;5.650;2023-02-15T16:08:11;15.60;99.90
44823;DHT22;51097;51.984;5.650;2023-02-15T16:10:40;15.60;99.90
44823;DHT22;51097;51.984;5.650;2023-02-15T16:13:06;15.50;99.90
44823;DHT22;51097;51.984;5.650;2023-02-15T16:15:36;15.50;99.90
44823;DHT22;51097;51.984;5.650;2023-02-15T16:18:14;15.40;99.90
44823;DHT22;51097;51.984;5.650;2023-02-15T16:20:41;15.40;99.90
44823;DHT22;51097;51.984;5.650;2023-02-15T16:23:47;15.40;99.90
44823;DHT22;51097;51.984;5.650;2023-02-15T16:29:26;15.20;99.90
44823;DHT22;51097;51.984;5.650;2023-02-15T16:32:22;15.20;99.90
44823;DHT22;51097;51.984;5.650;2023-02-15T16:35:01;15.00;99.90
44823;DHT22;51097;51.984;5.650;2023-02-15T16:37:32;14.90;99.90
44823;DHT22;51097;51.984;5.650;2023-02-15T16:39:58;14.90;99.90
44823;DHT22;51097;51.984;5.650;2023-02-15T16:42:24;14.80;99.90
44823;DHT22;51097;51.984;5.650;2023-02-15T16:44:55;14.90;99.90
44823;DHT22;51097;51.984;5.650;2023-02-15T16:47:26;14.70;99.90
44823;DHT22;51097;51.984;5.650;2023-02-15T16:49:54;14.70;99.90
44823;DHT22;51097;51.984;5.650;2023-02-15T16:52:26;14.70;99.90
44823;DHT22;51097;51.984;5.650;2023-02-15T16:54:59;14.50;99.90
44823;DHT22;51097;51.984;5.650;2023-02-15T16:57:29;14.40;99.90
44823;DHT22;51097;51.984;5.650;2023-02-15T17:00:06;14.30;99.90
44823;DHT22;51097;51.984;5.650;2023-02-15T17:02:33;14.20;99.90
44823;DHT22;51097;51.984;5.650;2023-02-15T17:07:42;14.10;99.90
44823;DHT22;51097;51.984;5.650;2023-02-15T17:10:38;14.00;99.90
44823;DHT22;51097;51.984;5.650;2023-02-15T17:13:14;13.90;99.90
44823;DHT22;51097;51.984;5.650;2023-02-15T17:18:43;13.80;99.90
44823;DHT22;51097;51.984;5.650;2023-02-15T17:21:17;13.70;99.90
44823;DHT22;51097;51.984;5.650;2023-02-15T17:23:49;13.60;99.90
44823;DHT22;51097;51.984;5.650;2023-02-15T17:26:24;13.60;99.90
44823;DHT22;51097;51.984;5.650;2023-02-15T17:28:56;13.60;99.90
44823;DHT22;51097;51.984;5.650;2023-02-15T17:31:25;13.50;99.90
44823;DHT22;51097;51.984;5.650;2023-02-15T17:33:54;13.30;99.90
44823;DHT22;51097;51.984;5.650;2023-02-15T17:36:23;13.40;99.90
44823;DHT22;51097;51.984;5.650;2023-02-15T17:41:29;13.10;99.90
44823;DHT22;51097;51.984;5.650;2023-02-15T17:43:55;13.20;99.90
44823;DHT22;51097;51.984;5.650;2023-02-15T17:46:21;13.10;99.90
44823;DHT22;51097;51.984;5.650;2023-02-15T17:48:49;13.10;99.90
44823;DHT22;51097;51.984;5.650;2023-02-15T17:51:15;13.00;99.90
44823;DHT22;51097;51.984;5.650;2023-02-15T17:53:42;13.10;99.90
44823;DHT22;51097;51.984;5.650;2023-02-15T17:56:26;13.00;99.90
44823;DHT22;51097;51.984;5.650;2023-02-15T17:58:52;12.90;99.90
44823;DHT22;51097;51.984;5.650;2023-02-15T18:01:18;12.80;99.90
44823;DHT22;51097;51.984;5.650;2023-02-15T18:04:04;12.70;99.90
44823;DHT22;51097;51.984;5.650;2023-02-15T18:06:49;12.90;99.90
44823;DHT22;51097;51.984;5.650;2023-02-15T18:09:33;12.80;99.90
44823;DHT22;51097;51.984;5.650;2023-02-15T18:12:26;12.70;99.90
44823;DHT22;51097;51.984;5.650;2023-02-15T18:14:55;12.60;99.90
44823;DHT22;51097;51.984;5.650;2023-02-15T18:17:28;12.60;99.90
44823;DHT22;51097;51.984;5.650;2023-02-15T18:19:54;12.50;99.90
44823;DHT22;51097;51.984;5.650;2023-02-15T18:22:23;12.40;99.90
44823;DHT22;51097;51.984;5.650;2023-02-15T18:24:48;12.40;99.90
44823;DHT22;51097;51.984;5.650;2023-02-15T18:27:15;12.30;99.90
44823;DHT22;51097;51.984;5.650;2023-02-15T18:29:41;12.40;99.90
44823;DHT22;51097;51.984;5.650;2023-02-15T18:32:18;12.20;99.90
44823;DHT22;51097;51.984;5.650;2023-02-15T18:34:46;12.30;99.90
44823;DHT22;51097;51.984;5.650;2023-02-15T18:37:20;12.10;99.90
44823;DHT22;51097;51.984;5.650;2023-02-15T18:39:50;12.00;99.90
44823;DHT22;51097;51.984;5.650;2023-02-15T18:42:22;12.00;99.90
44823;DHT22;51097;51.984;5.650;2023-02-15T18:44:49;12.10;99.90
44823;DHT22;51097;51.984;5.650;2023-02-15T18:47:16;12.00;99.90
44823;DHT22;51097;51.984;5.650;2023-02-15T18:49:41;12.00;99.90
44823;DHT22;51097;51.984;5.650;2023-02-15T18:52:17;12.00;99.90
44823;DHT22;51097;51.984;5.650;2023-02-15T18:54:44;12.00;99.90
44823;DHT22;51097;51.984;5.650;2023-02-15T18:57:15;12.00;99.90
44823;DHT22;51097;51.984;5.650;2023-02-15T18:59:41;11.80;99.90
44823;DHT22;51097;51.984;5.650;2023-02-15T19:02:15;12.00;99.90